Time;durP1;ratioP1;P1;durP2;ratioP2;P2;SDS_P1;SDS_P2;PMS_P1;PMS_P2;Temp;Humidity;BMP_temperature;BMP_pressure;BME280_temperature;BME280_humidity;BME280_pressure;Samples;Min_cycle;Max_cycle;Signal;HPM_P1;HPM_P2
2022/05/27 06:21:27;;;;;;;2.47;2.10;;;;;;;;;;7393258;19;20196;-80
2022/05/27 06:23:56;;;;;;;1.90;1.70;;;;;;;;;;7396317;19;20140;-80
2022/05/27 06:26:22;;;;;;;3.27;1.67;;;;;;;;;;7395463;19;20694;-82
2022/05/27 06:34:23;;;;;;;2.43;1.70;;;;;;;;;;7389842;19;20142;-80
2022/05/27 06:36:50;;;;;;;2.80;1.93;;;;;;;;;;7390356;19;20649;-83
2022/05/27 06:39:16;;;;;;;1.93;1.50;;;;;;;;;;7388305;19;20155;-82
2022/05/27 06:41:43;;;;;;;2.37;1.57;;;;;;;;;;7390572;19;20133;-82
2022/05/27 06:44:09;;;;;;;2.67;1.80;;;;;;;;;;7387628;19;20220;-83
2022/05/27 06:46:36;;;;;;;4.03;2.33;;;;;;;;;;7386849;19;20686;-81
2022/05/27 06:49:02;;;;;;;2.57;2.07;;;;;;;;;;7387202;19;20145;-80
2022/05/27 06:51:27;;;;;;;3.00;2.30;;;;;;;;;;7386632;19;20156;-81
2022/05/27 06:53:53;;;;;;;3.57;2.10;;;;;;;;;;7391511;19;20133;-80
2022/05/27 06:56:21;;;;;;;2.00;1.80;;;;;;;;;;7388072;19;20161;-80
2022/05/27 06:58:47;;;;;;;2.67;1.87;;;;;;;;;;7393867;19;20155;-83
2022/05/27 07:01:13;;;;;;;2.90;1.83;;;;;;;;;;7417093;19;20160;-83
2022/05/27 07:03:39;;;;;;;2.50;1.70;;;;;;;;;;7415882;19;20177;-83
2022/05/27 07:06:06;;;;;;;1.97;1.70;;;;;;;;;;7406939;19;20197;-83
2022/05/27 07:08:32;;;;;;;2.80;1.60;;;;;;;;;;7409888;19;20147;-82
2022/05/27 07:10:58;;;;;;;3.60;1.47;;;;;;;;;;7390829;19;20184;-79
2022/05/27 07:13:24;;;;;;;1.60;1.50;;;;;;;;;;7386137;19;20590;-82
2022/05/27 07:15:50;;;;;;;2.93;1.60;;;;;;;;;;7392447;19;20181;-83
2022/05/27 07:18:16;;;;;;;4.10;1.60;;;;;;;;;;7411664;19;20145;-82
2022/05/27 07:20:43;;;;;;;2.30;1.40;;;;;;;;;;7412214;19;20128;-83
2022/05/27 07:23:09;;;;;;;2.53;1.20;;;;;;;;;;7414230;19;20133;-83
2022/05/27 07:25:35;;;;;;;2.50;1.50;;;;;;;;;;7393881;19;20153;-80
2022/05/27 07:28:02;;;;;;;4.27;1.53;;;;;;;;;;7372387;19;20113;-82
2022/05/27 07:30:28;;;;;;;2.50;1.20;;;;;;;;;;7373858;19;20160;-79
2022/05/27 07:32:54;;;;;;;3.33;1.30;;;;;;;;;;7372095;19;20224;-81
2022/05/27 07:35:20;;;;;;;2.17;1.20;;;;;;;;;;7382138;19;20559;-80
2022/05/27 07:37:47;;;;;;;3.30;1.20;;;;;;;;;;7381454;19;20155;-79
2022/05/27 07:40:13;;;;;;;3.77;1.40;;;;;;;;;;7384915;19;20158;-79
2022/05/27 07:42:39;;;;;;;2.10;1.50;;;;;;;;;;7385049;19;20140;-79
2022/05/27 07:45:06;;;;;;;2.83;1.30;;;;;;;;;;7382559;19;20176;-78
2022/05/27 07:47:32;;;;;;;2.00;1.50;;;;;;;;;;7387508;19;20121;-79
2022/05/27 07:49:58;;;;;;;1.57;1.30;;;;;;;;;;7386321;19;20159;-79
2022/05/27 07:52:24;;;;;;;1.67;1.30;;;;;;;;;;7383320;19;20481;-79
2022/05/27 07:54:55;;;;;;;1.70;1.23;;;;;;;;;;7387538;19;20137;-78
2022/05/27 07:57:25;;;;;;;3.23;1.43;;;;;;;;;;7388006;19;20217;-78
2022/05/27 08:00:11;;;;;;;1.77;1.30;;;;;;;;;;7390187;19;20149;-78
2022/05/27 08:02:37;;;;;;;1.83;1.30;;;;;;;;;;7396627;19;20179;-78
2022/05/27 08:05:03;;;;;;;1.73;1.60;;;;;;;;;;7422384;19;20140;-77
2022/05/27 08:07:29;;;;;;;3.35;1.50;;;;;;;;;;7418175;19;20144;-79
2022/05/27 08:09:55;;;;;;;1.95;1.40;;;;;;;;;;7423032;19;20453;-80
2022/05/27 08:12:21;;;;;;;3.30;2.10;;;;;;;;;;7404100;19;20192;-78
2022/05/27 08:14:48;;;;;;;3.38;1.70;;;;;;;;;;7411191;19;20153;-78
2022/05/27 08:17:14;;;;;;;2.90;1.60;;;;;;;;;;7388984;19;20176;-78
2022/05/27 08:19:40;;;;;;;5.00;1.73;;;;;;;;;;7381707;19;20840;-79
2022/05/27 08:22:06;;;;;;;3.08;1.70;;;;;;;;;;7377666;19;20133;-78
2022/05/27 08:24:32;;;;;;;4.55;1.70;;;;;;;;;;7386203;19;20614;-79
2022/05/27 08:26:58;;;;;;;2.58;1.88;;;;;;;;;;7383176;19;20165;-77
2022/05/27 08:29:25;;;;;;;3.63;2.00;;;;;;;;;;7374630;19;20148;-78
2022/05/27 08:31:51;;;;;;;2.22;1.60;;;;;;;;;;7387610;19;20128;-80
2022/05/27 08:39:47;;;;;;;3.30;1.60;;;;;;;;;;7385434;19;20931;-78
2022/05/27 08:42:22;;;;;;;4.03;1.58;;;;;;;;;;7378405;19;20128;-79
2022/05/27 08:45:01;;;;;;;3.25;1.70;;;;;;;;;;7378757;19;20211;-81
2022/05/27 08:47:30;;;;;;;1.45;1.30;;;;;;;;;;7387816;19;20656;-79
2022/05/27 08:50:05;;;;;;;2.95;1.40;;;;;;;;;;7391657;19;20129;-78
2022/05/27 08:52:37;;;;;;;2.03;1.45;;;;;;;;;;7384547;19;20132;-77
2022/05/27 08:59:26;;;;;;;3.08;1.40;;;;;;;;;;7376955;19;20148;-78
2022/05/27 09:00:47;;;;;;;3.42;1.42;;;;;;;;;;7387529;19;20170;-79
2022/05/27 09:03:14;;;;;;;1.45;1.33;;;;;;;;;;7375911;19;20742;-78
2022/05/27 09:05:42;;;;;;;2.92;1.55;;;;;;;;;;7382779;19;20247;-78
2022/05/27 09:08:17;;;;;;;1.70;1.60;;;;;;;;;;7374432;19;20204;-78
2022/05/27 09:10:57;;;;;;;2.53;1.48;;;;;;;;;;7375192;19;20212;-78
2022/05/27 09:13:29;;;;;;;1.98;1.65;;;;;;;;;;7373201;19;20152;-78
2022/05/27 09:16:07;;;;;;;2.88;1.58;;;;;;;;;;7379367;19;20145;-78
2022/05/27 09:18:33;;;;;;;6.07;1.90;;;;;;;;;;7378227;19;20141;-78
2022/05/27 09:21:05;;;;;;;3.17;1.70;;;;;;;;;;7378058;19;21255;-79
2022/05/27 09:23:31;;;;;;;3.10;1.50;;;;;;;;;;7376737;19;20607;-78
2022/05/27 09:26:02;;;;;;;3.33;1.80;;;;;;;;;;7376203;19;20172;-77
2022/05/27 09:28:46;;;;;;;2.85;1.80;;;;;;;;;;7376506;19;20148;-79
2022/05/27 09:31:15;;;;;;;3.30;1.50;;;;;;;;;;7382445;19;20158;-77
2022/05/27 09:33:42;;;;;;;1.73;1.42;;;;;;;;;;7385838;19;20630;-77
2022/05/27 09:36:10;;;;;;;2.90;1.70;;;;;;;;;;7376934;19;20256;-78
2022/05/27 09:38:39;;;;;;;3.42;1.92;;;;;;;;;;7385381;19;20654;-78
2022/05/27 09:41:12;;;;;;;2.30;1.77;;;;;;;;;;7383691;19;20607;-78
2022/05/27 09:43:49;;;;;;;3.10;1.77;;;;;;;;;;7384275;19;20215;-79
2022/05/27 09:46:19;;;;;;;3.33;1.50;;;;;;;;;;7384745;19;20305;-77
2022/05/27 09:48:45;;;;;;;2.17;1.30;;;;;;;;;;7385102;19;20152;-77
2022/05/27 09:51:14;;;;;;;3.40;1.65;;;;;;;;;;7388084;19;20135;-77
2022/05/27 09:53:52;;;;;;;2.88;1.38;;;;;;;;;;7385304;19;20139;-77
2022/05/27 09:56:32;;;;;;;4.60;1.73;;;;;;;;;;7383629;19;20149;-78
2022/05/27 09:59:17;;;;;;;1.90;1.48;;;;;;;;;;7385604;19;20117;-77
2022/05/27 10:01:43;;;;;;;1.30;1.20;;;;;;;;;;7384286;19;20137;-80
2022/05/27 10:04:14;;;;;;;2.33;1.40;;;;;;;;;;7383956;19;20132;-80
2022/05/27 10:06:40;;;;;;;2.53;1.63;;;;;;;;;;7386274;19;20543;-78
2022/05/27 10:09:26;;;;;;;1.88;1.33;;;;;;;;;;7384133;19;20164;-79
2022/05/27 10:11:53;;;;;;;1.52;1.17;;;;;;;;;;7387203;19;20160;-78
2022/05/27 10:14:19;;;;;;;4.75;1.33;;;;;;;;;;7385713;19;20132;-79
2022/05/27 10:17:08;;;;;;;2.55;1.65;;;;;;;;;;7371649;19;20456;-78
2022/05/27 10:19:34;;;;;;;2.13;1.63;;;;;;;;;;7380477;19;20117;-81
2022/05/27 10:22:02;;;;;;;1.88;1.35;;;;;;;;;;7382437;19;20137;-80
2022/05/27 10:24:38;;;;;;;1.80;1.35;;;;;;;;;;7389074;19;20133;-80
2022/05/27 10:27:09;;;;;;;2.10;1.55;;;;;;;;;;7408034;19;20128;-82
2022/05/27 10:29:47;;;;;;;3.00;1.52;;;;;;;;;;7392931;19;20113;-78
2022/05/27 10:32:24;;;;;;;1.70;1.60;;;;;;;;;;7379259;19;20552;-81
2022/05/27 10:34:51;;;;;;;2.50;1.63;;;;;;;;;;7379242;19;20129;-80
2022/05/27 10:37:17;;;;;;;3.08;1.70;;;;;;;;;;7365257;19;20144;-79
2022/05/27 10:39:50;;;;;;;5.65;1.60;;;;;;;;;;7384700;19;20212;-78
2022/05/27 10:42:22;;;;;;;2.50;1.58;;;;;;;;;;7386399;19;20600;-77
2022/05/27 10:45:06;;;;;;;2.38;1.70;;;;;;;;;;7383416;19;20124;-79
2022/05/27 10:47:38;;;;;;;2.33;1.55;;;;;;;;;;7382826;19;20140;-79
2022/05/27 10:50:17;;;;;;;2.67;1.65;;;;;;;;;;7386174;19;20173;-79
2022/05/27 10:52:51;;;;;;;2.05;1.40;;;;;;;;;;7382069;19;20136;-78
2022/05/27 10:55:20;;;;;;;2.05;1.60;;;;;;;;;;7385076;19;20156;-78
2022/05/27 11:03:59;;;;;;;2.35;1.85;;;;;;;;;;7375865;19;20534;-79
2022/05/27 11:06:38;;;;;;;3.05;1.50;;;;;;;;;;7376979;19;20539;-78
2022/05/27 11:09:23;;;;;;;2.55;1.40;;;;;;;;;;7380271;19;20124;-78
2022/05/27 11:12:01;;;;;;;2.78;1.40;;;;;;;;;;7380301;19;20192;-78
2022/05/27 11:17:47;;;;;;;2.10;1.88;;;;;;;;;;7382091;19;20163;-78
2022/05/27 11:20:25;;;;;;;2.83;1.40;;;;;;;;;;7390026;19;20615;-79
2022/05/27 11:23:00;;;;;;;3.25;1.40;;;;;;;;;;7385613;19;20145;-78
2022/05/27 11:25:53;;;;;;;1.50;1.30;;;;;;;;;;7386854;19;20618;-79
2022/05/27 11:28:37;;;;;;;1.65;1.38;;;;;;;;;;7380230;19;20168;-79
2022/05/27 11:31:13;;;;;;;2.40;1.33;;;;;;;;;;7389587;19;20169;-79
2022/05/27 11:33:40;;;;;;;1.55;1.45;;;;;;;;;;7388972;19;20162;-78
2022/05/27 11:36:31;;;;;;;1.55;1.40;;;;;;;;;;7387672;19;20151;-78
2022/05/27 11:38:57;;;;;;;1.90;1.60;;;;;;;;;;7390804;19;20157;-78
2022/05/27 11:41:37;;;;;;;1.40;1.30;;;;;;;;;;7389896;19;20145;-78
2022/05/27 11:44:22;;;;;;;1.73;1.40;;;;;;;;;;7393292;19;20133;-80
2022/05/27 11:46:56;;;;;;;1.50;1.33;;;;;;;;;;7384608;19;20153;-80
2022/05/27 11:49:24;;;;;;;1.98;1.40;;;;;;;;;;7388107;19;20163;-79
2022/05/27 11:51:53;;;;;;;2.72;1.40;;;;;;;;;;7382483;19;20157;-79
2022/05/27 11:54:26;;;;;;;2.90;1.45;;;;;;;;;;7380788;19;20223;-79
2022/05/27 11:56:52;;;;;;;1.92;1.45;;;;;;;;;;7379083;19;20626;-79
2022/05/27 11:59:24;;;;;;;2.42;1.52;;;;;;;;;;7387772;19;20144;-79
2022/05/27 12:01:58;;;;;;;1.50;1.40;;;;;;;;;;7387640;19;20610;-79
2022/05/27 12:04:30;;;;;;;1.38;1.27;;;;;;;;;;7380421;19;20613;-79
2022/05/27 12:07:15;;;;;;;1.30;1.20;;;;;;;;;;7384694;19;20203;-79
2022/05/27 12:09:41;;;;;;;3.95;1.50;;;;;;;;;;7387452;19;20670;-79
2022/05/27 12:12:15;;;;;;;1.48;1.33;;;;;;;;;;7391457;19;20148;-79
2022/05/27 12:14:44;;;;;;;2.33;1.50;;;;;;;;;;7389013;19;20165;-80
2022/05/27 12:17:20;;;;;;;1.58;1.30;;;;;;;;;;7386026;19;20136;-79
2022/05/27 12:19:52;;;;;;;1.38;1.27;;;;;;;;;;7372410;19;20152;-79
2022/05/27 12:22:27;;;;;;;1.77;1.50;;;;;;;;;;7390270;19;20120;-79
2022/05/27 12:25:05;;;;;;;1.70;1.60;;;;;;;;;;7368260;19;20144;-79
2022/05/27 12:27:32;;;;;;;2.78;1.75;;;;;;;;;;7385867;19;20133;-79
2022/05/27 12:29:58;;;;;;;3.20;1.60;;;;;;;;;;7388763;19;20597;-79
2022/05/27 12:32:26;;;;;;;2.50;1.50;;;;;;;;;;7380537;19;20160;-79
2022/05/27 12:34:52;;;;;;;2.65;1.83;;;;;;;;;;7385600;19;20387;-80
2022/05/27 12:37:22;;;;;;;1.63;1.35;;;;;;;;;;7390245;19;20144;-80
2022/05/27 12:39:49;;;;;;;1.60;1.50;;;;;;;;;;7387044;19;20148;-80
2022/05/27 12:42:24;;;;;;;2.55;1.65;;;;;;;;;;7387505;19;20145;-79
2022/05/27 12:44:51;;;;;;;2.97;1.40;;;;;;;;;;7384175;19;20155;-79
2022/05/27 12:47:31;;;;;;;2.63;1.45;;;;;;;;;;7386574;19;20188;-79
2022/05/27 12:50:05;;;;;;;1.75;1.40;;;;;;;;;;7386904;19;20493;-79
2022/05/27 12:52:32;;;;;;;1.60;1.50;;;;;;;;;;7386956;19;20161;-79
2022/05/27 12:55:00;;;;;;;21.20;3.78;;;;;;;;;;7389903;19;20137;-82
2022/05/27 13:00:58;;;;;;;2.33;1.60;;;;;;;;;;7383807;19;20129;-81
2022/05/27 13:03:34;;;;;;;2.28;1.42;;;;;;;;;;7384602;19;20718;-80
2022/05/27 13:06:17;;;;;;;4.72;1.52;;;;;;;;;;7387358;19;20179;-80
2022/05/27 13:09:02;;;;;;;1.73;1.50;;;;;;;;;;7387941;19;20145;-80
2022/05/27 13:11:34;;;;;;;1.67;1.50;;;;;;;;;;7390573;19;20229;-80
2022/05/27 13:14:00;;;;;;;1.60;1.40;;;;;;;;;;7385734;19;20583;-79
2022/05/27 13:16:29;;;;;;;2.67;1.30;;;;;;;;;;7390425;19;20251;-78
2022/05/27 13:19:01;;;;;;;1.65;1.10;;;;;;;;;;7387546;19;20147;-80
2022/05/27 13:21:36;;;;;;;2.30;1.67;;;;;;;;;;7388443;19;20163;-78
2022/05/27 13:24:23;;;;;;;2.78;1.50;;;;;;;;;;7391502;19;20216;-80
2022/05/27 13:26:55;;;;;;;1.85;1.33;;;;;;;;;;7392307;19;20200;-80
2022/05/27 13:29:31;;;;;;;2.88;1.30;;;;;;;;;;7389278;19;20733;-79
2022/05/27 13:32:12;;;;;;;2.25;1.52;;;;;;;;;;7383779;19;20149;-79
2022/05/27 13:34:46;;;;;;;2.60;1.38;;;;;;;;;;7384056;19;20152;-80
2022/05/27 13:37:23;;;;;;;5.68;1.50;;;;;;;;;;7381136;19;20645;-79
2022/05/27 13:39:54;;;;;;;3.05;1.45;;;;;;;;;;7389042;19;20549;-79
2022/05/27 13:42:28;;;;;;;2.33;1.40;;;;;;;;;;7387233;19;20148;-80
2022/05/27 13:44:55;;;;;;;1.85;1.30;;;;;;;;;;7400459;19;20209;-79
2022/05/27 13:47:24;;;;;;;3.00;1.35;;;;;;;;;;7405937;19;20141;-78
2022/05/27 13:49:50;;;;;;;2.53;1.58;;;;;;;;;;7388725;19;20162;-79
2022/05/27 13:52:22;;;;;;;1.85;1.30;;;;;;;;;;7358788;19;20139;-80
2022/05/27 13:54:59;;;;;;;2.25;1.30;;;;;;;;;;7383154;19;20180;-79
2022/05/27 13:57:29;;;;;;;2.00;1.63;;;;;;;;;;7371103;19;20168;-81
2022/05/27 13:59:57;;;;;;;1.52;1.42;;;;;;;;;;7380963;19;20125;-80
2022/05/27 14:02:26;;;;;;;3.33;1.67;;;;;;;;;;7357721;19;20132;-81
2022/05/27 14:04:54;;;;;;;3.10;1.60;;;;;;;;;;7406199;19;20152;-80
2022/05/27 14:07:31;;;;;;;2.40;1.40;;;;;;;;;;7401947;19;20244;-81
2022/05/27 14:10:01;;;;;;;2.70;1.90;;;;;;;;;;7394309;19;20566;-79
2022/05/27 14:12:32;;;;;;;1.50;1.40;;;;;;;;;;7355838;19;20133;-82
2022/05/27 14:15:01;;;;;;;2.80;1.35;;;;;;;;;;7379605;19;20176;-81
2022/05/27 14:17:27;;;;;;;1.65;1.38;;;;;;;;;;7393820;19;20159;-83
2022/05/27 14:20:04;;;;;;;2.95;1.35;;;;;;;;;;7409889;19;20129;-83
2022/05/27 14:22:40;;;;;;;2.53;1.48;;;;;;;;;;7401017;19;20160;-83
2022/05/27 14:25:08;;;;;;;1.65;1.55;;;;;;;;;;7399058;19;20175;-83
2022/05/27 14:27:35;;;;;;;3.78;1.50;;;;;;;;;;7407570;19;21217;-83
2022/05/27 14:30:04;;;;;;;3.67;1.85;;;;;;;;;;7416393;19;21169;-83
2022/05/27 14:32:33;;;;;;;3.70;1.92;;;;;;;;;;7402549;19;22521;-83
2022/05/27 14:35:01;;;;;;;1.77;1.48;;;;;;;;;;7410096;19;20148;-83
2022/05/27 14:37:34;;;;;;;2.08;1.35;;;;;;;;;;7403556;19;20159;-81
2022/05/27 14:40:26;;;;;;;1.73;1.30;;;;;;;;;;7379631;19;20956;-79
2022/05/27 14:42:52;;;;;;;2.75;1.40;;;;;;;;;;7378911;19;20615;-80
2022/05/27 14:45:41;;;;;;;2.28;1.33;;;;;;;;;;7385309;19;20528;-80
2022/05/27 14:48:27;;;;;;;1.75;1.40;;;;;;;;;;7394459;19;20138;-80
2022/05/27 14:50:53;;;;;;;5.25;4.60;;;;;;;;;;7386299;19;20482;-80
2022/05/27 14:53:20;;;;;;;1.55;1.42;;;;;;;;;;7385536;19;20163;-79
2022/05/27 14:55:47;;;;;;;1.85;1.67;;;;;;;;;;7373795;19;20169;-79
2022/05/27 14:58:15;;;;;;;3.45;1.80;;;;;;;;;;7386381;19;20133;-79
2022/05/27 15:00:43;;;;;;;1.83;1.35;;;;;;;;;;7389901;19;20168;-80
2022/05/27 15:03:28;;;;;;;2.83;1.55;;;;;;;;;;7393271;19;20136;-80
2022/05/27 15:05:54;;;;;;;2.33;1.95;;;;;;;;;;7378322;19;20153;-80
2022/05/27 15:08:22;;;;;;;3.17;1.42;;;;;;;;;;7387029;19;20152;-81
2022/05/27 15:11:28;;;;;;;1.50;1.40;;;;;;;;;;7384754;19;20595;-80
2022/05/27 15:13:58;;;;;;;3.13;1.50;;;;;;;;;;7377982;19;20660;-80
2022/05/27 15:16:27;;;;;;;2.17;1.52;;;;;;;;;;7382254;19;20165;-80
2022/05/27 15:18:58;;;;;;;2.30;1.65;;;;;;;;;;7390415;19;20133;-80
2022/05/27 15:21:33;;;;;;;2.13;1.90;;;;;;;;;;7391718;19;20141;-80
2022/05/27 15:24:03;;;;;;;1.50;1.33;;;;;;;;;;7390914;19;20157;-80
2022/05/27 15:35:11;;;;;;;3.83;1.70;;;;;;;;;;7384068;19;21130;-80
2022/05/27 15:37:38;;;;;;;4.20;2.00;;;;;;;;;;7394025;19;20595;-81
2022/05/27 15:40:04;;;;;;;1.67;1.58;;;;;;;;;;7390263;19;20125;-80
2022/05/27 15:42:30;;;;;;;2.92;1.40;;;;;;;;;;7384636;19;20636;-80
2022/05/27 15:44:57;;;;;;;1.60;1.50;;;;;;;;;;7371827;19;20199;-79
2022/05/27 15:47:24;;;;;;;4.60;1.42;;;;;;;;;;7390882;19;20150;-79
2022/05/27 15:49:50;;;;;;;1.83;1.33;;;;;;;;;;7388174;19;20209;-78
2022/05/27 15:52:16;;;;;;;2.03;1.50;;;;;;;;;;7389057;19;20563;-80
2022/05/27 15:54:42;;;;;;;2.78;1.50;;;;;;;;;;7383871;19;20618;-78
2022/05/27 15:57:08;;;;;;;2.08;1.55;;;;;;;;;;7390718;19;20136;-78
2022/05/27 15:59:34;;;;;;;3.10;1.17;;;;;;;;;;7391555;19;20132;-78
2022/05/27 16:02:00;;;;;;;2.70;1.48;;;;;;;;;;7389368;19;20148;-79
2022/05/27 16:04:26;;;;;;;2.25;1.42;;;;;;;;;;7386260;19;20156;-79
2022/05/27 16:06:52;;;;;;;2.15;1.60;;;;;;;;;;7386609;19;20743;-79
2022/05/27 16:09:18;;;;;;;2.83;2.10;;;;;;;;;;7388623;19;20519;-78
2022/05/27 16:11:45;;;;;;;2.92;2.10;;;;;;;;;;7391550;19;20129;-78
2022/05/27 16:14:11;;;;;;;3.22;2.10;;;;;;;;;;7388504;19;20140;-79
2022/05/27 16:19:22;;;;;;;2.83;1.42;;;;;;;;;;7390872;19;20144;-79
2022/05/27 16:21:48;;;;;;;4.07;1.40;;;;;;;;;;7388275;19;20561;-79
2022/05/27 16:24:14;;;;;;;3.33;1.42;;;;;;;;;;7387382;19;20190;-78
2022/05/27 16:26:40;;;;;;;2.88;1.33;;;;;;;;;;7383826;19;20434;-78
2022/05/27 16:29:06;;;;;;;2.67;1.55;;;;;;;;;;7384983;19;20149;-78
2022/05/27 16:31:32;;;;;;;1.67;1.52;;;;;;;;;;7381234;19;20137;-78
2022/05/27 16:33:59;;;;;;;2.97;1.48;;;;;;;;;;7381596;19;20163;-80
2022/05/27 16:36:25;;;;;;;3.65;1.50;;;;;;;;;;7388155;19;20152;-78
2022/05/27 16:38:51;;;;;;;3.92;1.80;;;;;;;;;;7389217;19;20216;-78
2022/05/27 16:41:17;;;;;;;3.97;1.85;;;;;;;;;;7385402;19;20497;-78
2022/05/27 16:43:43;;;;;;;2.13;1.63;;;;;;;;;;7386515;19;20542;-79
2022/05/27 16:46:09;;;;;;;3.67;1.52;;;;;;;;;;7388139;19;20174;-79
2022/05/27 16:48:36;;;;;;;7.55;5.30;;;;;;;;;;7392675;19;20201;-79
2022/05/27 16:51:02;;;;;;;4.32;1.80;;;;;;;;;;7388591;19;20141;-79
2022/05/27 16:53:28;;;;;;;1.75;1.48;;;;;;;;;;7388775;19;20518;-78
2022/05/27 16:55:54;;;;;;;1.92;1.80;;;;;;;;;;7391135;19;20144;-79
2022/05/27 16:58:20;;;;;;;2.30;1.50;;;;;;;;;;7392057;19;20144;-79
2022/05/27 17:00:46;;;;;;;2.10;1.70;;;;;;;;;;7389424;19;20137;-78
2022/05/27 17:03:12;;;;;;;2.03;1.35;;;;;;;;;;7392463;19;20618;-79
2022/05/27 17:05:38;;;;;;;1.80;1.70;;;;;;;;;;7397058;19;20196;-79
2022/05/27 17:08:04;;;;;;;2.00;1.77;;;;;;;;;;7395155;19;20125;-79
2022/05/27 17:10:31;;;;;;;2.67;1.70;;;;;;;;;;7392887;19;20137;-79
2022/05/27 17:12:57;;;;;;;2.45;1.67;;;;;;;;;;7385676;19;20144;-79
2022/05/27 17:15:23;;;;;;;2.17;1.52;;;;;;;;;;7387635;19;20157;-79
2022/05/27 17:17:50;;;;;;;4.13;1.73;;;;;;;;;;7388524;19;20136;-79
2022/05/27 17:20:16;;;;;;;1.60;1.42;;;;;;;;;;7387920;19;20157;-79
2022/05/27 17:22:44;;;;;;;1.50;1.40;;;;;;;;;;7386250;19;20140;-79
2022/05/27 17:25:10;;;;;;;1.77;1.60;;;;;;;;;;7384618;19;20156;-79
2022/05/27 17:27:36;;;;;;;2.53;1.65;;;;;;;;;;7386014;19;20568;-78
2022/05/27 17:30:02;;;;;;;2.22;1.40;;;;;;;;;;7388481;19;20125;-78
2022/05/27 17:32:28;;;;;;;1.67;1.58;;;;;;;;;;7384376;19;20157;-78
2022/05/27 17:34:54;;;;;;;1.50;1.40;;;;;;;;;;7385037;19;20133;-78
2022/05/27 17:37:20;;;;;;;3.58;1.50;;;;;;;;;;7386076;19;20614;-79
2022/05/27 17:39:46;;;;;;;2.42;1.40;;;;;;;;;;7388147;19;20132;-78
2022/05/27 17:42:12;;;;;;;2.63;1.40;;;;;;;;;;7384355;19;20141;-80
2022/05/27 17:44:38;;;;;;;1.55;1.20;;;;;;;;;;7384865;19;20154;-78
2022/05/27 17:52:36;;;;;;;2.33;1.27;;;;;;;;;;7386936;19;20158;-78
2022/05/27 17:55:03;;;;;;;2.95;1.67;;;;;;;;;;7384844;19;20176;-79
2022/05/27 17:57:29;;;;;;;3.10;1.67;;;;;;;;;;7386942;19;20131;-78
2022/05/27 17:59:55;;;;;;;1.98;1.60;;;;;;;;;;7388842;19;20137;-78
2022/05/27 18:02:21;;;;;;;3.45;1.73;;;;;;;;;;7385581;19;20527;-77
2022/05/27 18:04:47;;;;;;;4.65;1.52;;;;;;;;;;7384693;19;20148;-79
2022/05/27 18:07:17;;;;;;;2.05;1.30;;;;;;;;;;7385149;19;20129;-77
2022/05/27 18:09:46;;;;;;;3.70;1.45;;;;;;;;;;7382533;19;20164;-79
2022/05/27 18:12:13;;;;;;;3.55;1.83;;;;;;;;;;7382722;19;20137;-78
2022/05/27 18:14:39;;;;;;;1.85;1.35;;;;;;;;;;7384598;19;20554;-79
2022/05/27 18:17:05;;;;;;;1.98;1.33;;;;;;;;;;7384977;19;20120;-79
2022/05/27 18:19:31;;;;;;;1.63;1.45;;;;;;;;;;7387152;19;20169;-79
2022/05/27 18:21:57;;;;;;;2.45;1.50;;;;;;;;;;7414215;19;20137;-78
2022/05/27 18:24:23;;;;;;;1.70;1.40;;;;;;;;;;7419793;19;20155;-79
2022/05/27 18:26:49;;;;;;;1.58;1.38;;;;;;;;;;7418061;19;20179;-76
